Condicions actuals
Clear
Conditions




Pressió:
1016.92 (hPa) - 30.03 (inHG)
Visibilitat:

6.2 (mimiles) - 10.0 (km)
Base de Núvols:

Clar (Feets) - Clar (Mts)
   Temperatura
13  °C
55°F
9  °C
P. rosada
77  %
 Humitat
   Velocitat
3  km/h
2  kts
2  mph
0.9  m/s
   Direcció
 290°
ONO
   Aeroport Metar Data
LEBL
Ubicació : Barcelona International Airport
Distància:  
17 mi (27.35 km)
Metar :LEBL 291830Z 29002KT CAVOK 13/09 Q1017 NOSIG
Sun 29th November 19:30 pm
   Raw Metar Info
Raw METAR is the most common format in the world for the transmission of observational weather data. It is highly standardized through the International Civil Aviation Organization (ICAO), which allows it to be understood throughout most of the world.
   API Info
Data Provided by
https://www.checkwx.com/weather/LEBL
   © Info
CSS/SVG/PHP scripts were developed by weather34.com for use in the weather34 template © 2015-2020

Guide Info provided by Metar-Wikipedia